createdAt,value
2023-08-10T00:01:21.839Z,94888.97
2023-08-10T00:03:48.557Z,94895.22
2023-08-10T00:06:15.432Z,94849.66
2023-08-10T00:08:42.030Z,94855.91
2023-08-10T00:11:08.595Z,94898.19
2023-08-10T00:13:35.083Z,94861.59
2023-08-10T00:16:01.634Z,94872.44
2023-08-10T00:18:28.183Z,94868.38
2023-08-10T00:20:54.743Z,94867.56
2023-08-10T00:23:21.381Z,94845.31
2023-08-10T00:25:49.002Z,94865.66
2023-08-10T00:28:16.570Z,94854.53
2023-08-10T00:30:43.143Z,94861.03
2023-08-10T00:33:12.881Z,94849.38
2023-08-10T00:35:44.443Z,94872.72
2023-08-10T00:38:10.938Z,94875.16
2023-08-10T00:40:37.824Z,94870.00
2023-08-10T00:43:04.588Z,94846.41
2023-08-10T00:45:31.237Z,94836.66
2023-08-10T00:47:58.176Z,94858.91
2023-08-10T00:50:25.426Z,94868.38
2023-08-10T00:52:52.085Z,94867.84
2023-08-10T00:55:18.704Z,94854.25
2023-08-10T00:57:45.261Z,94849.13
2023-08-10T01:00:12.511Z,94852.91
2023-08-10T01:02:40.573Z,94855.34
2023-08-10T01:05:13.623Z,94872.47
2023-08-10T01:07:56.328Z,94872.19
2023-08-10T01:10:46.837Z,94834.72
2023-08-10T01:13:14.686Z,94869.75
2023-08-10T01:16:04.098Z,94867.56
2023-08-10T01:18:30.674Z,94863.50
2023-08-10T01:20:57.863Z,94833.94
2023-08-10T01:23:39.108Z,94858.06
2023-08-10T01:26:05.805Z,94873.81
2023-08-10T01:28:34.137Z,94853.47
2023-08-10T01:31:01.405Z,94837.75
2023-08-10T01:33:28.459Z,94829.88
2023-08-10T01:35:55.009Z,94814.97
2023-08-10T01:38:21.581Z,94834.47
2023-08-10T01:40:52.571Z,94840.19
2023-08-10T01:43:19.199Z,94858.88
2023-08-10T01:45:47.036Z,94842.63
2023-08-10T01:48:16.478Z,94812.25
2023-08-10T01:50:44.107Z,94816.31
2023-08-10T01:53:12.947Z,94839.09
2023-08-10T01:55:40.273Z,94837.47
2023-08-10T01:58:06.863Z,94841.50
2023-08-10T02:00:34.640Z,94860.75
2023-08-10T02:03:01.277Z,94830.16
2023-08-10T02:05:27.845Z,94849.94
2023-08-10T02:07:54.446Z,94823.34
2023-08-10T02:10:21.052Z,94816.59
2023-08-10T02:12:47.621Z,94829.59
2023-08-10T02:15:14.228Z,94867.28
2023-08-10T02:17:42.294Z,94843.97
2023-08-10T02:20:13.558Z,94835.28
2023-08-10T02:22:49.667Z,94826.06
2023-08-10T02:25:16.927Z,94827.16
2023-08-10T02:27:43.554Z,94823.34
2023-08-10T02:30:11.004Z,94801.94
2023-08-10T02:32:38.028Z,94837.47
2023-08-10T02:35:05.790Z,94844.78
2023-08-10T02:37:32.900Z,94823.06
2023-08-10T02:39:59.913Z,94830.41
2023-08-10T02:42:27.216Z,94854.53
2023-08-10T02:44:53.758Z,94822.53
2023-08-10T02:47:20.395Z,94842.06
2023-08-10T02:49:46.975Z,94797.06
2023-08-10T02:52:13.610Z,94817.91
2023-08-10T02:54:40.171Z,94820.63
2023-08-10T02:57:06.748Z,94873.50
2023-08-10T02:59:33.389Z,94873.78
2023-08-10T03:02:00.067Z,94825.78
2023-08-10T03:04:26.686Z,94858.03
2023-08-10T03:06:53.287Z,94856.44
2023-08-10T03:09:19.876Z,94820.88
2023-08-10T03:11:46.501Z,94849.06
2023-08-10T03:14:13.093Z,94850.44
2023-08-10T03:16:39.756Z,94829.28
2023-08-10T03:19:06.543Z,94863.69
2023-08-10T03:21:33.172Z,94839.03
2023-08-10T03:23:59.798Z,94860.44
2023-08-10T03:26:26.411Z,94821.16
2023-08-10T03:28:53.133Z,94858.56
2023-08-10T03:31:19.764Z,94850.44
2023-08-10T03:33:46.348Z,94848.25
2023-08-10T03:36:13.017Z,94871.28
2023-08-10T03:38:39.801Z,94877.28
2023-08-10T03:41:07.003Z,94872.38
2023-08-10T03:43:33.607Z,94878.09
2023-08-10T03:46:03.472Z,94849.06
2023-08-10T03:48:30.065Z,94858.56
2023-08-10T03:50:56.650Z,94862.59
2023-08-10T03:53:23.218Z,94867.78
2023-08-10T03:55:49.823Z,94881.84
2023-08-10T03:58:16.423Z,94871.84
2023-08-10T04:00:46.290Z,94891.38
2023-08-10T04:03:13.466Z,94839.56
2023-08-10T04:05:40.295Z,94872.38
2023-08-10T04:08:10.161Z,94886.22
2023-08-10T04:10:36.823Z,94878.34
2023-08-10T04:13:03.438Z,94883.78
2023-08-10T04:15:32.138Z,94898.41
2023-08-10T04:17:58.929Z,94875.91
2023-08-10T04:20:25.971Z,94885.91
2023-08-10T04:22:53.891Z,94885.91
2023-08-10T04:25:20.733Z,94926.31
2023-08-10T04:27:47.297Z,94915.72
2023-08-10T04:30:14.433Z,94927.41
2023-08-10T04:32:41.772Z,94903.22
2023-08-10T04:35:09.373Z,94897.25
2023-08-10T04:37:36.097Z,94902.97
2023-08-10T04:40:06.216Z,94939.88
2023-08-10T04:42:33.117Z,94931.47
2023-08-10T04:44:59.943Z,94907.59
2023-08-10T04:47:26.650Z,94891.31
2023-08-10T04:49:53.269Z,94941.78
2023-08-10T04:52:19.904Z,94898.91
2023-08-10T04:54:46.503Z,94923.88
2023-08-10T04:57:13.085Z,94915.75
2023-08-10T04:59:39.699Z,94919.28
2023-08-10T05:02:06.620Z,94914.63
2023-08-10T05:04:33.646Z,94903.78
2023-08-10T05:07:00.214Z,94931.19
2023-08-10T05:09:26.773Z,94919.81
2023-08-10T05:11:53.329Z,94943.16
2023-08-10T05:14:19.866Z,94957.56
2023-08-10T05:16:46.417Z,94942.06
2023-08-10T05:19:13.005Z,94906.00
2023-08-10T05:21:39.525Z,94907.34
2023-08-10T05:24:06.597Z,94926.09
2023-08-10T05:26:33.463Z,94949.69
2023-08-10T05:29:00.026Z,94915.25
2023-08-10T05:31:27.125Z,94908.16
2023-08-10T05:33:53.790Z,94929.91
2023-08-10T05:36:20.343Z,94928.81
2023-08-10T05:38:46.897Z,94944.28
2023-08-10T05:41:13.652Z,94956.25
2023-08-10T05:43:40.965Z,94947.56
2023-08-10T05:46:08.089Z,94967.13
2023-08-10T05:48:34.725Z,94953.56
2023-08-10T05:51:01.396Z,94959.00
2023-08-10T05:53:28.219Z,94950.31
2023-08-10T05:55:54.796Z,94912.03
2023-08-10T05:58:21.410Z,94951.94
2023-08-10T06:00:48.107Z,94964.94
2023-08-10T06:03:16.147Z,94963.03
2023-08-10T06:05:43.761Z,94939.19
2023-08-10T06:08:10.370Z,94952.72
2023-08-10T06:10:36.967Z,94948.91
2023-08-10T06:13:03.552Z,94965.16
2023-08-10T06:15:30.949Z,94929.63
2023-08-10T06:17:58.161Z,94945.03
2023-08-10T06:20:24.910Z,94964.03
2023-08-10T06:22:51.490Z,94940.69
2023-08-10T06:25:18.684Z,94949.81
2023-08-10T06:27:45.693Z,94960.84
2023-08-10T06:30:14.414Z,94952.41
2023-08-10T06:32:41.262Z,94923.59
2023-08-10T06:35:09.779Z,94944.97
2023-08-10T06:37:37.582Z,94932.41
2023-08-10T06:40:10.001Z,94937.38
2023-08-10T06:42:37.126Z,94947.91
2023-08-10T06:45:05.023Z,94953.59
2023-08-10T06:47:32.126Z,94957.09
2023-08-10T06:49:59.161Z,94930.06
2023-08-10T06:52:25.786Z,94970.31
2023-08-10T06:54:55.571Z,94941.81
2023-08-10T06:57:22.117Z,94919.19
2023-08-10T07:02:20.522Z,94970.16
2023-08-10T07:04:47.105Z,94973.19
2023-08-10T07:07:15.146Z,94970.94
2023-08-10T07:09:42.450Z,94963.84
2023-08-10T07:12:09.001Z,94957.34
2023-08-10T07:14:38.254Z,94953.38
2023-08-10T07:17:05.533Z,94958.22
2023-08-10T07:35:09.749Z,94966.59
2023-08-10T07:38:35.852Z,94971.22
2023-08-10T07:41:32.500Z,94971.00
2023-08-10T07:44:06.056Z,94963.59
2023-08-10T07:46:34.044Z,94956.78
2023-08-10T07:49:00.900Z,94955.50
2023-08-10T07:51:27.400Z,94959.06
2023-08-10T07:53:53.968Z,94967.06
2023-08-10T07:56:20.737Z,94949.34
2023-08-10T07:58:47.228Z,94952.00
2023-08-10T08:01:15.363Z,94974.91
2023-08-10T08:03:42.269Z,94959.31
2023-08-10T08:06:09.705Z,94953.53
2023-08-10T08:08:36.266Z,94969.22
2023-08-10T08:11:02.987Z,94949.50
2023-08-10T08:13:29.500Z,94933.94
2023-08-10T08:15:58.238Z,94941.19
2023-08-10T08:18:50.785Z,94947.09
2023-08-10T08:21:21.445Z,94945.81
2023-08-10T08:23:49.438Z,94943.16
2023-08-10T08:26:16.030Z,94944.22
2023-08-10T08:28:43.347Z,94949.88
2023-08-10T08:31:10.057Z,94936.72
2023-08-10T08:33:36.938Z,94928.59
2023-08-10T08:36:03.727Z,94948.03
2023-08-10T08:38:33.775Z,94938.22
2023-08-10T08:41:05.033Z,94940.59
2023-08-10T08:43:31.539Z,94937.63
2023-08-10T08:45:58.873Z,94932.59
2023-08-10T08:48:26.880Z,94928.00
2023-08-10T08:50:53.362Z,94922.44
2023-08-10T08:53:19.886Z,94916.53
2023-08-10T08:55:47.855Z,94932.41
2023-08-10T08:58:17.785Z,94918.72
2023-08-10T09:00:51.721Z,94923.16
2023-08-10T09:03:18.439Z,94915.06
2023-08-10T09:05:45.925Z,94901.56
2023-08-10T09:08:17.073Z,94894.13
2023-08-10T09:10:44.468Z,94894.00
2023-08-10T09:13:17.276Z,94903.66
2023-08-10T09:15:44.303Z,94877.53
2023-08-10T09:18:10.802Z,94893.63
2023-08-10T09:20:37.425Z,94891.78
2023-08-10T09:23:04.215Z,94894.44
2023-08-10T09:25:41.390Z,94860.50
2023-08-10T09:28:10.819Z,94871.44
2023-08-10T09:37:51.778Z,94848.03
2023-08-10T09:40:18.485Z,94843.31
2023-08-10T09:42:45.023Z,94832.53
2023-08-10T09:45:13.015Z,94835.16
2023-08-10T09:47:40.897Z,94822.44
2023-08-10T09:50:09.419Z,94821.66
2023-08-10T09:52:37.215Z,94822.41
2023-08-10T10:18:01.577Z,94795.75
2023-08-10T10:20:28.726Z,94789.81
2023-08-10T10:23:16.909Z,94797.88
2023-08-10T10:45:08.669Z,94790.81
2023-08-10T10:47:39.632Z,94779.47
2023-08-10T10:50:19.768Z,94796.50
2023-08-10T10:52:56.541Z,94802.38
2023-08-10T10:55:27.335Z,94794.84
2023-08-10T10:57:54.030Z,94786.75
2023-08-10T11:00:21.949Z,94806.50
2023-08-10T11:02:49.108Z,94816.25
2023-08-10T11:05:17.289Z,94808.06
2023-08-10T11:07:49.333Z,94820.53
2023-08-10T11:10:19.960Z,94816.09
2023-08-10T11:12:48.154Z,94810.75
2023-08-10T11:15:15.031Z,94816.31
2023-08-10T11:17:49.643Z,94807.41
2023-08-10T11:20:17.132Z,94810.56
2023-08-10T11:22:43.713Z,94802.03
2023-08-10T11:25:17.637Z,94813.72
2023-08-10T11:27:45.440Z,94795.59
2023-08-10T11:30:14.461Z,94791.22
2023-08-10T11:32:41.745Z,94808.16
2023-08-10T11:35:13.669Z,94789.31
2023-08-10T11:37:41.359Z,94804.88
2023-08-10T11:40:15.174Z,94789.09
2023-08-10T11:42:46.018Z,94785.88
2023-08-10T11:45:18.023Z,94793.47
2023-08-10T11:48:02.426Z,94790.69
2023-08-10T11:50:31.094Z,94782.13
2023-08-10T11:52:59.454Z,94786.72
2023-08-10T11:55:28.816Z,94776.06
2023-08-10T11:57:56.630Z,94769.84
2023-08-10T12:00:27.278Z,94770.38
2023-08-10T12:03:11.635Z,94773.50
2023-08-10T12:05:46.255Z,94788.25
2023-08-10T12:08:17.939Z,94771.19
2023-08-10T12:10:46.336Z,94781.47
2023-08-10T12:13:16.551Z,94761.28
2023-08-10T12:15:47.819Z,94785.69
2023-08-10T12:18:18.671Z,94774.97
2023-08-10T12:20:47.841Z,94775.59
2023-08-10T12:23:15.459Z,94785.34
2023-08-10T12:25:42.237Z,94779.75
2023-08-10T12:28:09.465Z,94787.59
2023-08-10T12:30:36.099Z,94772.78
2023-08-10T12:33:02.829Z,94779.56
2023-08-10T12:35:29.338Z,94773.63
2023-08-10T12:37:55.889Z,94775.16
2023-08-10T12:40:22.397Z,94784.91
2023-08-10T12:42:49.040Z,94776.50
2023-08-10T12:45:15.854Z,94784.53
2023-08-10T12:47:43.216Z,94783.72
2023-08-10T12:50:10.911Z,94773.75
2023-08-10T12:52:38.067Z,94781.31
2023-08-10T12:55:04.793Z,94749.44
2023-08-10T12:57:31.299Z,94779.72
2023-08-10T12:59:59.473Z,94785.94
2023-08-10T13:02:33.577Z,94792.03
2023-08-10T13:05:00.984Z,94796.22
2023-08-10T13:07:27.592Z,94771.13
2023-08-10T13:09:54.066Z,94778.72
2023-08-10T13:12:20.572Z,94807.56
2023-08-10T13:14:47.098Z,94792.63
2023-08-10T13:17:13.680Z,94798.16
2023-08-10T13:19:40.248Z,94795.47
2023-08-10T13:22:07.782Z,94797.88
2023-08-10T13:24:35.073Z,94798.44
2023-08-10T13:27:03.037Z,94786.13
2023-08-10T13:29:30.558Z,94800.94
2023-08-10T13:31:57.614Z,94801.56
2023-08-10T13:34:24.487Z,94779.94
2023-08-10T13:36:52.743Z,94774.25
2023-08-10T13:39:19.527Z,94777.09
2023-08-10T13:41:46.019Z,94783.97
2023-08-10T13:44:12.630Z,94750.16
2023-08-10T13:46:39.187Z,94771.94
2023-08-10T13:49:05.683Z,94764.25
2023-08-10T13:51:33.052Z,94754.16
2023-08-10T13:53:59.551Z,94766.31
2023-08-10T13:56:26.696Z,94765.75
2023-08-10T13:58:53.260Z,94757.56
2023-08-10T14:01:20.236Z,94756.22
2023-08-10T14:03:46.857Z,94756.16
2023-08-10T14:06:13.462Z,94769.53
2023-08-10T14:08:40.010Z,94772.13
2023-08-10T14:11:06.511Z,94765.59
2023-08-10T14:13:33.092Z,94759.44
2023-08-10T14:16:00.020Z,94772.41
2023-08-10T14:18:26.747Z,94769.44
2023-08-10T14:20:53.405Z,94776.50
2023-08-10T14:23:20.117Z,94751.69
2023-08-10T14:25:46.722Z,94756.50
2023-08-10T14:28:13.248Z,94749.78
2023-08-10T14:30:39.899Z,94753.00
2023-08-10T14:33:06.571Z,94764.09
2023-08-10T14:35:33.231Z,94756.66
2023-08-10T14:38:01.921Z,94765.97
2023-08-10T14:40:28.480Z,94751.22
2023-08-10T14:42:55.090Z,94756.84
2023-08-10T14:45:21.931Z,94762.31
2023-08-10T14:47:59.236Z,94755.59
2023-08-10T14:50:26.629Z,94748.00
2023-08-10T14:52:56.190Z,94745.16
2023-08-10T14:55:22.909Z,94732.31
2023-08-10T14:57:50.495Z,94748.09
2023-08-10T15:00:17.343Z,94724.53
2023-08-10T15:02:47.548Z,94741.66
2023-08-10T15:05:14.852Z,94737.22
2023-08-10T15:07:41.772Z,94731.59
2023-08-10T15:10:08.523Z,94736.03
2023-08-10T15:12:35.069Z,94729.19
2023-08-10T15:15:01.701Z,94721.31
2023-08-10T15:17:28.274Z,94719.66
2023-08-10T15:19:54.874Z,94724.72
2023-08-10T15:22:21.437Z,94734.47
2023-08-10T15:24:47.919Z,94719.25
2023-08-10T15:27:14.402Z,94709.91
2023-08-10T15:29:40.914Z,94705.69
2023-08-10T15:32:07.626Z,94710.25
2023-08-10T15:34:34.320Z,94702.75
2023-08-10T15:37:00.867Z,94702.28
2023-08-10T15:39:27.344Z,94708.97
2023-08-10T15:41:53.805Z,94711.28
2023-08-10T15:44:20.285Z,94691.41
2023-08-10T15:46:46.754Z,94694.97
2023-08-10T15:49:13.249Z,94691.50
2023-08-10T15:51:39.763Z,94691.16
2023-08-10T15:54:10.252Z,94684.44
2023-08-10T15:56:36.752Z,94680.88
2023-08-10T15:59:03.238Z,94678.47
2023-08-10T16:01:31.502Z,94678.03
2023-08-10T16:03:58.896Z,94666.25
2023-08-10T16:06:25.556Z,94657.44
2023-08-10T16:08:52.201Z,94654.22
2023-08-10T16:11:21.490Z,94630.78
2023-08-10T16:13:47.980Z,94633.53
2023-08-10T16:16:14.509Z,94648.72
2023-08-10T16:18:41.034Z,94639.34
2023-08-10T16:21:07.513Z,94642.47
2023-08-10T16:23:34.079Z,94629.59
2023-08-10T16:26:00.556Z,94635.69
2023-08-10T16:28:27.063Z,94626.81
2023-08-10T16:30:53.578Z,94611.00
2023-08-10T16:33:20.069Z,94622.16
2023-08-10T16:35:46.591Z,94629.31
2023-08-10T16:38:13.090Z,94634.84
2023-08-10T16:40:39.567Z,94638.53
2023-08-10T16:43:06.135Z,94649.69
2023-08-10T16:45:32.697Z,94645.34
2023-08-10T16:47:59.277Z,94648.13
2023-08-10T16:50:25.878Z,94666.41
2023-08-10T16:52:52.429Z,94664.34
2023-08-10T16:55:19.281Z,94663.69
2023-08-10T16:57:45.761Z,94658.97
2023-08-10T17:00:13.591Z,94671.72
2023-08-10T17:02:40.829Z,94675.19
2023-08-10T17:05:08.037Z,94681.84
2023-08-10T17:07:34.521Z,94700.03
2023-08-10T17:10:01.037Z,94712.22
2023-08-10T17:12:27.924Z,94710.16
2023-08-10T17:14:54.429Z,94699.13
2023-08-10T17:17:21.052Z,94708.91
2023-08-10T17:19:47.546Z,94711.44
2023-08-10T17:22:14.146Z,94711.56
2023-08-10T17:24:40.648Z,94725.81
2023-08-10T17:27:07.161Z,94735.00
2023-08-10T17:29:33.644Z,94747.88
2023-08-10T17:32:00.402Z,94754.09
2023-08-10T17:34:26.945Z,94729.44
2023-08-10T17:36:53.437Z,94752.91
2023-08-10T17:39:19.919Z,94758.63
2023-08-10T17:41:47.862Z,94743.22
2023-08-10T17:44:14.468Z,94747.78
2023-08-10T17:46:40.983Z,94744.47
2023-08-10T17:49:07.481Z,94759.41
2023-08-10T17:51:33.980Z,94762.34
2023-08-10T17:54:00.458Z,94740.81
2023-08-10T17:56:26.935Z,94756.91
2023-08-10T17:58:53.436Z,94749.34
2023-08-10T18:01:20.550Z,94765.34
2023-08-10T18:03:52.061Z,94771.84
2023-08-10T18:06:18.601Z,94768.53
2023-08-10T18:08:45.072Z,94774.44
2023-08-10T18:11:11.560Z,94766.22
2023-08-10T18:13:38.052Z,94762.63
2023-08-10T18:16:04.695Z,94773.50
2023-08-10T18:18:31.177Z,94741.44
2023-08-10T18:21:00.362Z,94767.75
2023-08-10T18:23:29.307Z,94781.03
2023-08-10T18:25:56.777Z,94760.75
2023-08-10T18:28:23.248Z,94788.53
2023-08-10T18:30:49.776Z,94793.78
2023-08-10T18:33:16.388Z,94794.16
2023-08-10T18:35:43.237Z,94798.84
2023-08-10T18:38:09.726Z,94797.44
2023-08-10T18:40:39.739Z,94789.75
2023-08-10T18:43:06.471Z,94791.50
2023-08-10T18:45:34.058Z,94785.56
2023-08-10T18:48:00.686Z,94799.47
2023-08-10T18:50:27.680Z,94782.25
2023-08-10T18:52:54.376Z,94777.72
2023-08-10T18:55:21.080Z,94810.88
2023-08-10T18:57:47.768Z,94807.19
2023-08-10T19:00:14.596Z,94820.59
2023-08-10T19:02:44.178Z,94816.75
2023-08-10T19:05:10.747Z,94832.44
2023-08-10T19:07:38.465Z,94812.72
2023-08-10T19:10:06.063Z,94831.13
2023-08-10T19:12:34.411Z,94816.25
2023-08-10T19:15:00.924Z,94840.50
2023-08-10T19:17:27.470Z,94855.69
2023-08-10T19:19:54.085Z,94861.81
2023-08-10T19:22:20.722Z,94852.28
2023-08-10T19:24:47.184Z,94845.50
2023-08-10T19:27:13.680Z,94863.59
2023-08-10T19:29:40.423Z,94862.78
2023-08-10T19:32:07.291Z,94862.13
2023-08-10T19:34:34.089Z,94874.41
2023-08-10T19:37:00.585Z,94860.03
2023-08-10T19:39:29.537Z,94855.97
2023-08-10T19:41:57.598Z,94868.72
2023-08-10T19:44:24.088Z,94873.63
2023-08-10T19:46:50.571Z,94878.78
2023-08-10T19:49:17.087Z,94877.75
2023-08-10T19:51:43.573Z,94862.84
2023-08-10T19:54:10.076Z,94889.38
2023-08-10T19:56:36.627Z,94897.44
2023-08-10T19:59:03.142Z,94879.25
2023-08-10T20:01:29.661Z,94893.91
2023-08-10T20:03:56.570Z,94882.63
2023-08-10T20:06:23.827Z,94860.88
2023-08-10T20:08:50.326Z,94911.16
2023-08-10T20:11:16.862Z,94916.28
2023-08-10T20:13:43.378Z,94905.22
2023-08-10T20:16:09.910Z,94914.34
2023-08-10T20:18:36.409Z,94912.16
2023-08-10T20:21:02.911Z,94909.06
2023-08-10T20:23:32.098Z,94911.94
2023-08-10T20:25:59.649Z,94918.13
2023-08-10T20:28:26.195Z,94916.59
2023-08-10T20:30:52.758Z,94925.34
2023-08-10T20:33:19.258Z,94931.81
2023-08-10T20:35:46.524Z,94920.91
2023-08-10T20:38:13.133Z,94922.63
2023-08-10T20:40:39.748Z,94943.47
2023-08-10T20:43:06.270Z,94911.09
2023-08-10T20:45:32.769Z,94933.06
2023-08-10T20:48:00.522Z,94919.81
2023-08-10T20:50:27.842Z,94942.69
2023-08-10T20:52:54.318Z,94935.03
2023-08-10T20:55:21.008Z,94945.34
2023-08-10T20:57:50.141Z,94934.91
2023-08-10T21:00:17.225Z,94940.38
2023-08-10T21:02:43.776Z,94948.97
2023-08-10T21:05:10.326Z,94941.25
2023-08-10T21:07:37.022Z,94953.00
2023-08-10T21:10:03.629Z,94961.28
2023-08-10T21:12:30.138Z,94962.50
2023-08-10T21:14:56.705Z,94960.16
2023-08-10T21:17:23.211Z,94969.56
2023-08-10T21:19:49.731Z,94963.16
2023-08-10T21:22:16.331Z,94965.69
2023-08-10T21:24:42.821Z,94958.47
2023-08-10T21:27:09.743Z,94944.75
2023-08-10T21:29:42.117Z,94969.69
2023-08-10T21:32:08.867Z,94969.06
2023-08-10T21:34:35.403Z,94978.38
2023-08-10T21:37:01.962Z,94953.72
2023-08-10T21:39:28.501Z,94960.56
2023-08-10T21:41:55.026Z,94970.38
2023-08-10T21:44:21.510Z,94963.97
2023-08-10T21:46:49.722Z,94961.03
2023-08-10T21:49:16.260Z,94961.84
2023-08-10T21:51:42.747Z,94962.41
2023-08-10T21:54:09.244Z,94960.38
2023-08-10T21:56:35.808Z,94964.94
2023-08-10T21:59:02.295Z,94926.28
2023-08-10T22:01:28.763Z,94962.88
2023-08-10T22:03:55.247Z,94955.22
2023-08-10T22:06:21.788Z,94944.50
2023-08-10T22:08:48.298Z,94975.69
2023-08-10T22:11:14.795Z,94962.94
2023-08-10T22:13:41.333Z,94967.66
2023-08-10T22:16:07.848Z,94965.59
2023-08-10T22:18:35.730Z,94960.44
2023-08-10T22:21:02.557Z,94962.56
2023-08-10T22:23:29.149Z,94951.81
2023-08-10T22:25:55.670Z,94963.44
2023-08-10T22:28:22.170Z,94961.44
2023-08-10T22:30:48.716Z,94979.09
2023-08-10T22:33:15.257Z,94977.03
2023-08-10T22:35:41.780Z,94980.84
2023-08-10T22:38:08.254Z,94974.88
2023-08-10T22:40:34.970Z,94966.19
2023-08-10T22:43:02.374Z,94976.00
2023-08-10T22:45:28.870Z,94964.09
2023-08-10T22:47:55.379Z,94963.88
2023-08-10T22:50:22.407Z,94966.91
2023-08-10T22:52:48.925Z,94965.88
2023-08-10T22:55:15.466Z,94962.09
2023-08-10T22:57:41.968Z,94968.09
2023-08-10T23:00:09.082Z,94963.63
2023-08-10T23:02:35.670Z,94957.38
2023-08-10T23:05:02.243Z,94953.94
2023-08-10T23:07:28.762Z,94967.25
2023-08-10T23:09:56.065Z,94961.03
2023-08-10T23:12:25.948Z,94950.56
2023-08-10T23:14:53.882Z,94952.50
2023-08-10T23:17:20.415Z,94963.09
2023-08-10T23:19:46.926Z,94965.81
2023-08-10T23:22:13.402Z,94941.19
2023-08-10T23:24:39.928Z,94960.19
2023-08-10T23:27:06.442Z,94964.25
2023-08-10T23:29:33.085Z,94966.16
2023-08-10T23:32:00.372Z,94971.91
2023-08-10T23:34:26.875Z,94970.00
2023-08-10T23:36:53.537Z,94966.75
2023-08-10T23:39:20.032Z,94959.44
2023-08-10T23:41:46.546Z,94971.31
2023-08-10T23:44:13.788Z,94968.59
2023-08-10T23:46:40.521Z,94958.28
2023-08-10T23:49:07.095Z,94958.28
2023-08-10T23:51:33.569Z,94968.59
2023-08-10T23:54:00.060Z,94962.19
2023-08-10T23:56:26.560Z,94972.78
2023-08-10T23:58:53.079Z,94980.59
